Time,TemperatureF,DewpointF,PressureIn,WindDirection,WindDirectionDegrees,WindSpeedMPH,WindSpeedGustMPH,Humidity,HourlyPrecipIn,Conditions,Clouds,dailyrainin,SoftwareType,DateUTC
2013-05-01 00:02:00,38.8,17.1,30.06,ESE,115,0.0,0.0,41,0.00,CLR,CLR,0.00,WeatherDisplay:10.37,2013-05-01 04:02:00,
2013-05-01 00:07:00,38.7,17.0,30.06,ESE,115,0.0,0.0,41,0.00,CLR,CLR,0.00,WeatherDisplay:10.37,2013-05-01 04:07:00,
2013-05-01 00:12:00,38.3,16.6,30.06,ESE,115,0.0,0.0,41,0.00,CLR,CLR,0.00,WeatherDisplay:10.37,2013-05-01 04:12:00,
2013-05-01 00:18:00,37.9,16.9,30.06,ESE,115,0.0,0.0,42,0.00,CLR,CLR,0.00,WeatherDisplay:10.37,2013-05-01 04:18:00,
2013-05-01 00:23:00,37.7,16.6,30.06,ESE,115,0.0,0.0,42,0.00,CLR,CLR,0.00,WeatherDisplay:10.37,2013-05-01 04:23:00,
2013-05-01 00:28:00,37.4,16.4,30.06,ESE,115,0.0,0.0,42,0.00,CLR,CLR,0.00,WeatherDisplay:10.37,2013-05-01 04:28:00,
2013-05-01 00:38:00,37.0,16.6,30.06,ESE,115,0.0,0.0,43,0.00,CLR,CLR,0.00,WeatherDisplay:10.37,2013-05-01 04:38:00,
2013-05-01 00:48:00,36.9,16.4,30.06,ESE,115,0.0,0.0,43,0.00,CLR,CLR,0.00,WeatherDisplay:10.37,2013-05-01 04:48:00,
2013-05-01 00:58:00,36.7,16.8,30.06,ESE,115,0.0,0.0,44,0.00,CLR,CLR,0.00,WeatherDisplay:10.37,2013-05-01 04:58:00,
2013-05-01 01:03:00,36.5,17.1,30.06,ESE,115,0.0,0.0,45,0.00,CLR,CLR,0.00,WeatherDisplay:10.37,2013-05-01 05:03:00,
2013-05-01 01:08:00,36.3,17.0,30.06,ESE,115,0.0,0.0,45,0.00,CLR,CLR,0.00,WeatherDisplay:10.37,2013-05-01 05:08:00,
2013-05-01 01:18:00,36.0,17.2,30.06,ESE,115,0.0,0.0,46,0.00,CLR,CLR,0.00,WeatherDisplay:10.37,2013-05-01 05:18:00,
2013-05-01 01:23:00,36.0,17.2,30.06,ESE,115,0.0,0.0,46,0.00,CLR,CLR,0.00,WeatherDisplay:10.37,2013-05-01 05:23:00,
2013-05-01 01:28:00,35.9,17.6,30.09,ESE,115,0.0,0.0,47,0.00,CLR,CLR,0.00,WeatherDisplay:10.37,2013-05-01 05:28:00,
2013-05-01 01:38:00,35.6,17.8,30.09,ESE,115,0.0,0.0,48,0.00,CLR,CLR,0.00,WeatherDisplay:10.37,2013-05-01 05:38:00,
2013-05-01 01:48:00,35.2,17.5,30.06,ESE,115,0.0,0.0,48,0.00,CLR,CLR,0.00,WeatherDisplay:10.37,2013-05-01 05:48:00,
2013-05-01 01:58:00,35.1,17.8,30.06,ESE,115,0.0,0.0,49,0.00,CLR,CLR,0.00,WeatherDisplay:10.37,2013-05-01 05:58:00,
2013-05-01 02:03:00,34.9,17.6,30.06,ESE,115,0.0,0.0,49,0.00,CLR,CLR,0.00,WeatherDisplay:10.37,2013-05-01 06:03:00,
2013-05-01 02:08:00,34.9,18.1,30.06,ESE,115,0.0,0.0,50,0.00,CLR,CLR,0.00,WeatherDisplay:10.37,2013-05-01 06:08:00,
2013-05-01 02:18:00,34.5,17.8,30.09,ESE,115,0.0,0.0,50,0.00,CLR,CLR,0.00,WeatherDisplay:10.37,2013-05-01 06:18:00,
2013-05-01 02:28:00,34.2,17.9,30.09,ESE,115,0.0,0.0,51,0.00,CLR,CLR,0.00,WeatherDisplay:10.37,2013-05-01 06:28:00,
2013-05-01 02:38:00,33.8,17.6,30.09,ESE,115,0.0,0.0,51,0.00,CLR,CLR,0.00,WeatherDisplay:10.37,2013-05-01 06:38:00,
2013-05-01 02:48:00,33.6,17.8,30.09,ESE,115,0.0,0.0,52,0.00,CLR,CLR,0.00,WeatherDisplay:10.37,2013-05-01 06:48:00,
2013-05-01 02:58:00,33.4,17.7,30.12,ESE,115,0.0,0.0,52,0.00,CLR,CLR,0.00,WeatherDisplay:10.37,2013-05-01 06:58:00,
2013-05-01 03:03:00,33.3,17.5,30.12,ESE,115,0.0,0.0,52,0.00,CLR,CLR,0.00,WeatherDisplay:10.37,2013-05-01 07:03:00,
2013-05-01 03:08:00,33.3,18.0,30.12,ESE,115,0.0,0.0,53,0.00,CLR,CLR,0.00,WeatherDisplay:10.37,2013-05-01 07:08:00,
2013-05-01 03:18:00,33.1,17.8,30.12,ESE,115,0.0,0.0,53,0.00,CLR,CLR,0.00,WeatherDisplay:10.37,2013-05-01 07:18:00,
2013-05-01 03:28:00,32.9,18.1,30.12,ESE,115,0.0,0.0,54,0.00,CLR,CLR,0.00,WeatherDisplay:10.37,2013-05-01 07:28:00,
2013-05-01 03:38:00,32.5,18.1,30.12,ESE,115,0.0,0.0,55,0.00,CLR,CLR,0.00,WeatherDisplay:10.37,2013-05-01 07:38:00,
2013-05-01 03:48:00,32.4,18.0,30.15,ESE,115,0.0,0.0,55,0.00,CLR,CLR,0.00,WeatherDisplay:10.37,2013-05-01 07:48:00,
2013-05-01 03:58:00,32.2,18.2,30.18,ESE,115,0.0,0.0,56,0.00,CLR,CLR,0.00,WeatherDisplay:10.37,2013-05-01 07:58:00,
2013-05-01 04:03:00,32.2,18.2,30.18,ESE,115,0.0,0.0,56,0.00,CLR,CLR,0.00,WeatherDisplay:10.37,2013-05-01 08:03:00,
2013-05-01 04:08:00,32.0,18.1,30.18,ESE,115,0.0,0.0,56,0.00,CLR,CLR,0.00,WeatherDisplay:10.37,2013-05-01 08:08:00,
2013-05-01 04:18:00,31.8,18.3,30.15,ESE,115,0.0,0.0,57,0.00,CLR,CLR,0.00,WeatherDisplay:10.37,2013-05-01 08:18:00,
2013-05-01 04:28:00,31.5,18.0,30.18,ESE,115,0.0,0.0,57,0.00,CLR,CLR,0.00,WeatherDisplay:10.37,2013-05-01 08:28:00,
2013-05-01 04:33:00,31.3,18.2,30.18,ESE,115,0.0,0.0,58,0.00,CLR,CLR,0.00,WeatherDisplay:10.37,2013-05-01 08:33:00,
2013-05-01 04:38:00,31.3,18.2,30.18,ESE,115,0.0,0.0,58,0.00,CLR,CLR,0.00,WeatherDisplay:10.37,2013-05-01 08:38:00,
2013-05-01 04:48:00,31.1,18.4,30.21,ESE,115,0.0,0.0,59,0.00,CLR,CLR,0.00,WeatherDisplay:10.37,2013-05-01 08:48:00,
2013-05-01 04:58:00,30.9,18.3,30.21,ESE,115,0.0,0.0,59,0.00,CLR,CLR,0.00,WeatherDisplay:10.37,2013-05-01 08:58:00,
2013-05-01 05:03:00,30.9,18.3,30.21,ESE,115,0.0,0.0,59,0.00,CLR,CLR,0.00,WeatherDisplay:10.37,2013-05-01 09:03:00,
2013-05-01 05:08:00,30.9,18.2,30.21,ESE,115,0.0,0.0,59,0.00,CLR,CLR,0.00,WeatherDisplay:10.37,2013-05-01 09:08:00,
2013-05-01 05:18:00,30.7,18.1,30.21,ESE,115,0.0,0.0,59,0.00,CLR,CLR,0.00,WeatherDisplay:10.37,2013-05-01 09:18:00,
2013-05-01 05:28:00,30.7,18.1,30.24,ESE,115,0.0,0.0,59,0.00,CLR,CLR,0.00,WeatherDisplay:10.37,2013-05-01 09:28:00,
2013-05-01 05:38:00,30.6,17.9,30.24,ESE,115,0.0,0.0,59,0.00,CLR,CLR,0.00,WeatherDisplay:10.37,2013-05-01 09:38:00,
2013-05-01 05:48:00,30.6,17.9,30.24,ESE,115,0.0,0.0,59,0.00,CLR,CLR,0.00,WeatherDisplay:10.37,2013-05-01 09:48:00,
2013-05-01 05:58:00,30.7,18.5,30.27,ESE,115,0.0,0.0,60,0.00,CLR,CLR,0.00,WeatherDisplay:10.37,2013-05-01 09:58:00,
2013-05-01 06:03:00,31.2,18.9,30.27,ESE,115,0.0,0.0,60,0.00,CLR,CLR,0.00,WeatherDisplay:10.37,2013-05-01 10:03:00,
2013-05-01 06:08:00,31.5,19.2,30.27,ESE,115,0.0,0.0,60,0.00,CLR,CLR,0.00,WeatherDisplay:10.37,2013-05-01 10:08:00,
2013-05-01 06:18:00,32.8,20.8,30.27,ESE,115,0.0,0.0,61,0.00,CLR,CLR,0.00,WeatherDisplay:10.37,2013-05-01 10:18:00,
2013-05-01 06:28:00,34.7,23.0,30.27,ESE,115,0.0,0.0,62,0.00,CLR,CLR,0.00,WeatherDisplay:10.37,2013-05-01 10:28:00,
2013-05-01 06:38:00,36.0,24.2,30.27,ESE,115,0.0,0.0,62,0.00,CLR,CLR,0.00,WeatherDisplay:10.37,2013-05-01 10:38:00,
2013-05-01 06:48:00,37.1,25.3,30.27,ESE,115,0.0,0.0,62,0.00,CLR,CLR,0.00,WeatherDisplay:10.37,2013-05-01 10:48:00,
2013-05-01 06:58:00,38.9,27.4,30.33,ESE,115,0.0,0.0,63,0.00,CLR,CLR,0.00,WeatherDisplay:10.37,2013-05-01 10:58:00,
2013-05-01 07:03:00,40.0,28.8,30.33,East,93,0.0,0.0,64,0.00,CLR,CLR,0.00,WeatherDisplay:10.37,2013-05-01 11:03:00,
2013-05-01 07:08:00,40.9,29.3,30.33,NE,34,0.0,0.0,63,0.00,CLR,CLR,0.00,WeatherDisplay:10.37,2013-05-01 11:08:00,
2013-05-01 07:18:00,42.5,30.4,30.36,NNE,13,0.0,0.0,62,0.00,CLR,CLR,0.00,WeatherDisplay:10.37,2013-05-01 11:18:00,
2013-05-01 07:28:00,44.1,30.2,30.36,NNE,26,0.0,3.0,58,0.00,CLR,CLR,0.00,WeatherDisplay:10.37,2013-05-01 11:28:00,
2013-05-01 07:38:00,44.6,28.1,30.36,NE,41,0.0,3.0,52,0.00,CLR,CLR,0.00,WeatherDisplay:10.37,2013-05-01 11:38:00,
2013-05-01 07:48:00,46.4,28.8,30.39,NE,48,0.0,2.0,50,0.00,CLR,CLR,0.00,WeatherDisplay:10.37,2013-05-01 11:48:00,
2013-05-01 07:53:00,47.1,28.4,30.39,NE,50,0.0,3.0,48,0.00,CLR,CLR,0.00,WeatherDisplay:10.37,2013-05-01 11:53:00,
2013-05-01 08:03:00,48.4,27.4,30.39,NE,45,0.0,0.0,44,0.00,CLR,CLR,0.00,WeatherDisplay:10.37,2013-05-01 12:03:00,
2013-05-01 08:08:00,49.1,28.1,30.39,NE,48,0.0,0.0,44,0.00,CLR,CLR,0.00,WeatherDisplay:10.37,2013-05-01 12:08:00,
2013-05-01 08:18:00,50.4,26.3,30.42,NE,53,0.0,3.0,39,0.00,CLR,CLR,0.00,WeatherDisplay:10.37,2013-05-01 12:18:00,
2013-05-01 08:28:00,52.0,26.5,30.42,NE,35,0.0,4.0,37,0.00,CLR,CLR,0.00,WeatherDisplay:10.37,2013-05-01 12:28:00,
2013-05-01 08:38:00,53.2,25.6,30.42,NNE,18,2.0,3.0,34,0.00,CLR,CLR,0.00,WeatherDisplay:10.37,2013-05-01 12:38:00,
2013-05-01 08:48:00,54.7,26.8,30.42,SE,124,0.0,0.0,34,0.00,CLR,CLR,0.00,WeatherDisplay:10.37,2013-05-01 12:48:00,
2013-05-01 08:58:00,55.6,24.6,30.39,ENE,69,0.0,0.0,30,0.00,CLR,CLR,0.00,WeatherDisplay:10.37,2013-05-01 12:58:00,
2013-05-01 09:03:00,56.2,24.4,30.39,East,88,0.0,2.0,29,0.00,CLR,CLR,0.00,WeatherDisplay:10.37,2013-05-01 13:03:00,
2013-05-01 09:08:00,56.7,23.0,30.39,NE,43,0.0,3.0,27,0.00,CLR,CLR,0.00,WeatherDisplay:10.37,2013-05-01 13:08:00,
2013-05-01 09:18:00,57.6,23.8,30.42,NNE,26,0.0,3.0,27,0.00,CLR,CLR,0.00,WeatherDisplay:10.37,2013-05-01 13:18:00,
2013-05-01 09:28:00,58.3,23.5,30.42,ENE,71,2.0,4.0,26,0.00,CLR,CLR,0.00,WeatherDisplay:10.37,2013-05-01 13:28:00,
2013-05-01 09:38:00,58.8,24.0,30.42,NNE,32,0.0,3.0,26,0.00,CLR,CLR,0.00,WeatherDisplay:10.37,2013-05-01 13:38:00,
2013-05-01 09:48:00,59.7,23.8,30.44,WNW,296,0.0,0.0,25,0.00,CLR,CLR,0.00,WeatherDisplay:10.37,2013-05-01 13:48:00,
2013-05-01 09:58:00,60.6,24.6,30.44,South,181,0.0,2.0,25,0.00,CLR,CLR,0.00,WeatherDisplay:10.37,2013-05-01 13:58:00,
2013-05-01 10:03:00,61.2,24.1,30.44,WSW,251,2.0,4.0,24,0.00,CLR,CLR,0.00,WeatherDisplay:10.37,2013-05-01 14:03:00,
2013-05-01 10:08:00,61.5,24.3,30.44,NW,307,0.0,3.0,24,0.00,CLR,CLR,0.00,WeatherDisplay:10.37,2013-05-01 14:08:00,
2013-05-01 10:18:00,62.6,25.3,30.42,ESE,103,3.0,6.0,24,0.00,CLR,CLR,0.00,WeatherDisplay:10.37,2013-05-01 14:18:00,
2013-05-01 10:28:00,63.9,25.3,30.44,SE,137,0.0,3.0,23,0.00,CLR,CLR,0.00,WeatherDisplay:10.37,2013-05-01 14:28:00,
2013-05-01 10:38:00,64.0,25.5,30.44,ENE,69,1.0,4.0,23,0.00,CLR,CLR,0.00,WeatherDisplay:10.37,2013-05-01 14:38:00,
2013-05-01 10:48:00,65.1,26.3,30.44,SE,134,0.0,3.0,23,0.00,CLR,CLR,0.00,WeatherDisplay:10.37,2013-05-01 14:48:00,
2013-05-01 10:58:00,66.2,27.2,30.44,South,174,3.0,7.0,23,0.00,CLR,CLR,0.00,WeatherDisplay:10.37,2013-05-01 14:58:00,
2013-05-01 11:03:00,66.4,26.3,30.44,ESE,123,5.0,6.0,22,0.00,CLR,CLR,0.00,WeatherDisplay:10.37,2013-05-01 15:03:00,
2013-05-01 11:08:00,66.4,26.3,30.44,ESE,110,0.0,6.0,22,0.00,CLR,CLR,0.00,WeatherDisplay:10.37,2013-05-01 15:08:00,
2013-05-01 11:18:00,66.9,26.8,30.44,ESE,111,1.0,6.0,22,0.00,CLR,CLR,0.00,WeatherDisplay:10.37,2013-05-01 15:18:00,
2013-05-01 11:28:00,67.5,27.2,30.44,NNE,31,0.0,6.0,22,0.00,CLR,CLR,0.00,WeatherDisplay:10.37,2013-05-01 15:28:00,
2013-05-01 11:38:00,67.8,27.6,30.44,SE,129,1.0,6.0,22,0.00,CLR,CLR,0.00,WeatherDisplay:10.37,2013-05-01 15:38:00,
2013-05-01 11:48:00,67.6,27.4,30.39,ENE,57,3.0,8.0,22,0.00,CLR,CLR,0.00,WeatherDisplay:10.37,2013-05-01 15:48:00,
2013-05-01 11:58:00,68.4,28.1,30.42,SE,141,5.0,7.0,22,0.00,CLR,CLR,0.00,WeatherDisplay:10.37,2013-05-01 15:58:00,
2013-05-01 12:03:00,68.9,28.5,30.42,SSE,165,8.0,11.0,22,0.00,CLR,CLR,0.00,WeatherDisplay:10.37,2013-05-01 16:03:00,
2013-05-01 12:08:00,69.0,28.5,30.42,SSE,162,0.0,8.0,22,0.00,CLR,CLR,0.00,WeatherDisplay:10.37,2013-05-01 16:08:00,
2013-05-01 12:18:00,68.9,28.5,30.36,NE,39,0.0,6.0,22,0.00,CLR,CLR,0.00,WeatherDisplay:10.37,2013-05-01 16:18:00,
2013-05-01 12:28:00,69.4,28.9,30.36,South,182,1.0,6.0,22,0.00,CLR,CLR,0.00,WeatherDisplay:10.37,2013-05-01 16:28:00,
2013-05-01 12:38:00,70.0,29.4,30.36,SSE,156,6.0,8.0,22,0.00,CLR,CLR,0.00,WeatherDisplay:10.37,2013-05-01 16:38:00,
2013-05-01 12:48:00,69.8,29.2,30.33,SSE,150,7.0,12.0,22,0.00,CLR,CLR,0.00,WeatherDisplay:10.37,2013-05-01 16:48:00,
2013-05-01 12:58:00,69.1,28.6,30.33,ESE,115,7.0,12.0,22,0.00,CLR,CLR,0.00,WeatherDisplay:10.37,2013-05-01 16:58:00,
2013-05-01 13:03:00,68.9,28.5,30.33,ESE,111,7.0,13.0,22,0.00,CLR,CLR,0.00,WeatherDisplay:10.37,2013-05-01 17:03:00,
2013-05-01 13:08:00,69.0,28.6,30.33,SE,132,7.0,11.0,22,0.00,CLR,CLR,0.00,WeatherDisplay:10.37,2013-05-01 17:08:00,
2013-05-01 13:18:00,69.6,29.1,30.36,SSE,151,8.0,12.0,22,0.00,CLR,CLR,0.00,WeatherDisplay:10.37,2013-05-01 17:18:00,
2013-05-01 13:28:00,69.3,28.8,30.33,SE,137,3.0,11.0,22,0.00,CLR,CLR,0.00,WeatherDisplay:10.37,2013-05-01 17:28:00,
2013-05-01 13:38:00,69.3,28.8,30.33,SE,145,7.0,10.0,22,0.00,CLR,CLR,0.00,WeatherDisplay:10.37,2013-05-01 17:38:00,
2013-05-01 13:48:00,68.7,28.3,30.30,SE,135,6.0,10.0,22,0.00,CLR,CLR,0.00,WeatherDisplay:10.37,2013-05-01 17:48:00,
2013-05-01 13:58:00,68.7,28.3,30.33,SSE,166,8.0,13.0,22,0.00,CLR,CLR,0.00,WeatherDisplay:10.37,2013-05-01 17:58:00,
2013-05-01 14:03:00,68.7,28.3,30.33,SSE,157,6.0,11.0,22,0.00,CLR,CLR,0.00,WeatherDisplay:10.37,2013-05-01 18:03:00,
2013-05-01 14:08:00,68.7,28.3,30.33,SSE,155,6.0,9.0,22,0.00,CLR,CLR,0.00,WeatherDisplay:10.37,2013-05-01 18:08:00,
2013-05-01 14:18:00,68.7,28.3,30.30,South,171,8.0,13.0,22,0.00,CLR,CLR,0.00,WeatherDisplay:10.37,2013-05-01 18:18:00,
2013-05-01 14:28:00,68.5,28.2,30.27,South,169,8.0,11.0,22,0.00,CLR,CLR,0.00,WeatherDisplay:10.37,2013-05-01 18:28:00,
2013-05-01 14:38:00,68.5,28.2,30.27,SSE,160,8.0,15.0,22,0.00,CLR,CLR,0.00,WeatherDisplay:10.37,2013-05-01 18:38:00,
2013-05-01 14:48:00,68.3,27.9,30.24,SSE,153,7.0,13.0,22,0.00,CLR,CLR,0.00,WeatherDisplay:10.37,2013-05-01 18:48:00,
2013-05-01 14:58:00,67.3,27.1,30.24,SE,136,8.0,12.0,22,0.00,CLR,CLR,0.00,WeatherDisplay:10.37,2013-05-01 18:58:00,
2013-05-01 15:03:00,67.1,26.9,30.24,SE,144,8.0,13.0,22,0.00,CLR,CLR,0.00,WeatherDisplay:10.37,2013-05-01 19:03:00,
2013-05-01 15:08:00,67.1,26.9,30.24,SSE,164,9.0,13.0,22,0.00,CLR,CLR,0.00,WeatherDisplay:10.37,2013-05-01 19:08:00,
2013-05-01 15:18:00,67.2,27.0,30.24,SE,137,8.0,13.0,22,0.00,CLR,CLR,0.00,WeatherDisplay:10.37,2013-05-01 19:18:00,
2013-05-01 15:28:00,67.1,26.9,30.24,SSE,160,7.0,12.0,22,0.00,CLR,CLR,0.00,WeatherDisplay:10.37,2013-05-01 19:28:00,
2013-05-01 15:38:00,67.3,27.1,30.24,SE,127,8.0,12.0,22,0.00,CLR,CLR,0.00,WeatherDisplay:10.37,2013-05-01 19:38:00,
2013-05-01 15:48:00,66.9,26.8,30.24,ESE,121,6.0,12.0,22,0.00,CLR,CLR,0.00,WeatherDisplay:10.37,2013-05-01 19:48:00,
2013-05-01 15:58:00,66.7,26.6,30.22,SE,144,7.0,10.0,22,0.00,CLR,CLR,0.00,WeatherDisplay:10.37,2013-05-01 19:58:00,
2013-05-01 16:03:00,66.8,26.7,30.21,SE,145,7.0,11.0,22,0.00,CLR,CLR,0.00,WeatherDisplay:10.37,2013-05-01 20:03:00,
2013-05-01 16:08:00,66.9,26.8,30.21,SE,142,7.0,13.0,22,0.00,CLR,CLR,0.00,WeatherDisplay:10.37,2013-05-01 20:08:00,
2013-05-01 16:18:00,66.7,26.6,30.21,SSE,155,6.0,13.0,22,0.00,CLR,CLR,0.00,WeatherDisplay:10.37,2013-05-01 20:18:00,
2013-05-01 16:28:00,66.7,26.6,30.18,SE,145,6.0,9.0,22,0.00,CLR,CLR,0.00,WeatherDisplay:10.37,2013-05-01 20:28:00,
2013-05-01 16:38:00,66.4,26.3,30.18,SSE,150,10.0,16.0,22,0.00,CLR,CLR,0.00,WeatherDisplay:10.37,2013-05-01 20:38:00,
2013-05-01 16:48:00,65.6,25.7,30.18,SSE,148,7.0,12.0,22,0.00,CLR,CLR,0.00,WeatherDisplay:10.37,2013-05-01 20:48:00,
2013-05-01 16:58:00,65.1,26.4,30.18,SSE,160,8.0,15.0,23,0.00,CLR,CLR,0.00,WeatherDisplay:10.37,2013-05-01 20:58:00,
2013-05-01 17:03:00,64.9,26.2,30.18,SSE,154,7.0,12.0,23,0.00,CLR,CLR,0.00,WeatherDisplay:10.37,2013-05-01 21:03:00,
2013-05-01 17:08:00,64.9,26.2,30.18,SSE,149,5.0,8.0,23,0.00,CLR,CLR,0.00,WeatherDisplay:10.37,2013-05-01 21:08:00,
2013-05-01 17:18:00,64.9,26.2,30.15,SSE,149,8.0,12.0,23,0.00,CLR,CLR,0.00,WeatherDisplay:10.37,2013-05-01 21:18:00,
2013-05-01 17:28:00,64.4,25.8,30.17,SE,140,5.0,11.0,23,0.00,CLR,CLR,0.00,WeatherDisplay:10.37,2013-05-01 21:28:00,
2013-05-01 17:38:00,64.8,26.1,30.18,SSE,149,6.0,10.0,23,0.00,CLR,CLR,0.00,WeatherDisplay:10.37,2013-05-01 21:38:00,
2013-05-01 17:48:00,64.9,26.2,30.15,SSE,148,6.0,9.0,23,0.00,CLR,CLR,0.00,WeatherDisplay:10.37,2013-05-01 21:48:00,
2013-05-01 17:58:00,64.5,25.8,30.15,SSE,150,5.0,8.0,23,0.00,CLR,CLR,0.00,WeatherDisplay:10.37,2013-05-01 21:58:00,
2013-05-01 18:03:00,64.1,25.5,30.15,SE,125,5.0,8.0,23,0.00,CLR,CLR,0.00,WeatherDisplay:10.37,2013-05-01 22:03:00,
2013-05-01 18:08:00,63.9,25.3,30.15,SE,136,3.0,8.0,23,0.00,CLR,CLR,0.00,WeatherDisplay:10.37,2013-05-01 22:08:00,
2013-05-01 18:18:00,63.9,25.3,30.12,SSE,158,3.0,6.0,23,0.00,CLR,CLR,0.00,WeatherDisplay:10.37,2013-05-01 22:18:00,
2013-05-01 18:28:00,63.7,25.1,30.14,SSE,156,6.0,8.0,23,0.00,CLR,CLR,0.00,WeatherDisplay:10.37,2013-05-01 22:28:00,
2013-05-01 18:38:00,63.1,24.7,30.15,SE,144,5.0,8.0,23,0.00,CLR,CLR,0.00,WeatherDisplay:10.37,2013-05-01 22:38:00,
2013-05-01 18:48:00,62.1,23.9,30.15,SE,141,5.0,8.0,23,0.00,CLR,CLR,0.00,WeatherDisplay:10.37,2013-05-01 22:48:00,
2013-05-01 18:58:00,61.3,24.2,30.15,SSE,152,0.0,6.0,24,0.00,CLR,CLR,0.00,WeatherDisplay:10.37,2013-05-01 22:58:00,
2013-05-01 19:03:00,60.8,23.8,30.15,SSE,147,3.0,6.0,24,0.00,CLR,CLR,0.00,WeatherDisplay:10.37,2013-05-01 23:03:00,
2013-05-01 19:08:00,60.4,23.4,30.15,SE,140,2.0,4.0,24,0.00,CLR,CLR,0.00,WeatherDisplay:10.37,2013-05-01 23:08:00,
2013-05-01 19:18:00,59.7,22.8,30.15,SE,131,0.0,6.0,24,0.00,CLR,CLR,0.00,WeatherDisplay:10.37,2013-05-01 23:18:00,
2013-05-01 19:28:00,58.9,22.2,30.15,SE,127,1.0,4.0,24,0.00,CLR,CLR,0.00,WeatherDisplay:10.37,2013-05-01 23:28:00,
2013-05-01 19:38:00,58.1,21.4,30.15,SE,134,2.0,4.0,24,0.00,CLR,CLR,0.00,WeatherDisplay:10.37,2013-05-01 23:38:00,
2013-05-01 19:48:00,57.2,20.7,30.18,SE,143,0.0,5.0,24,0.00,CLR,CLR,0.00,WeatherDisplay:10.37,2013-05-01 23:48:00,
2013-05-01 19:58:00,56.4,20.0,30.16,SE,141,0.0,3.0,24,0.00,CLR,CLR,0.00,WeatherDisplay:10.37,2013-05-01 23:58:00,
2013-05-01 20:03:00,55.9,20.6,30.15,ESE,119,2.0,4.0,25,0.00,CLR,CLR,0.00,WeatherDisplay:10.37,2013-05-02 00:03:00,
2013-05-01 20:08:00,55.6,20.3,30.15,SE,133,0.0,3.0,25,0.00,CLR,CLR,0.00,WeatherDisplay:10.37,2013-05-02 00:08:00,
2013-05-01 20:18:00,54.7,19.5,30.18,SE,128,0.0,0.0,25,0.00,CLR,CLR,0.00,WeatherDisplay:10.37,2013-05-02 00:18:00,
2013-05-01 20:28:00,53.8,18.8,30.18,SE,142,0.0,0.0,25,0.00,CLR,CLR,0.00,WeatherDisplay:10.37,2013-05-02 00:28:00,
2013-05-01 20:38:00,52.9,18.9,30.18,ESE,108,0.0,0.0,26,0.00,CLR,CLR,0.00,WeatherDisplay:10.37,2013-05-02 00:38:00,
2013-05-01 20:48:00,52.3,19.3,30.18,ESE,103,0.0,0.0,27,0.00,CLR,CLR,0.00,WeatherDisplay:10.37,2013-05-02 00:48:00,
2013-05-01 20:58:00,51.6,18.7,30.18,ESE,103,0.0,0.0,27,0.00,CLR,CLR,0.00,WeatherDisplay:10.37,2013-05-02 00:58:00,
2013-05-01 21:03:00,51.3,18.4,30.18,ESE,103,0.0,0.0,27,0.00,CLR,CLR,0.00,WeatherDisplay:10.37,2013-05-02 01:03:00,
2013-05-01 21:08:00,50.7,18.8,30.18,ESE,103,0.0,0.0,28,0.00,CLR,CLR,0.00,WeatherDisplay:10.37,2013-05-02 01:08:00,
2013-05-01 21:18:00,49.8,18.8,30.15,ESE,103,0.0,0.0,29,0.00,CLR,CLR,0.00,WeatherDisplay:10.37,2013-05-02 01:18:00,
2013-05-01 21:23:00,49.5,18.5,30.15,ESE,103,0.0,0.0,29,0.00,CLR,CLR,0.00,WeatherDisplay:10.37,2013-05-02 01:23:00,
2013-05-01 21:28:00,49.3,19.1,30.15,ESE,103,0.0,0.0,30,0.00,CLR,CLR,0.00,WeatherDisplay:10.37,2013-05-02 01:28:00,
2013-05-01 21:33:00,48.9,19.6,30.15,ESE,103,0.0,0.0,31,0.00,CLR,CLR,0.00,WeatherDisplay:10.37,2013-05-02 01:33:00,
2013-05-01 21:38:00,48.7,19.4,30.15,ESE,103,0.0,0.0,31,0.00,CLR,CLR,0.00,WeatherDisplay:10.37,2013-05-02 01:38:00,
2013-05-01 21:48:00,48.2,20.4,30.15,ESE,103,0.0,0.0,33,0.00,CLR,CLR,0.00,WeatherDisplay:10.37,2013-05-02 01:48:00,
2013-05-01 21:57:00,47.6,19.9,30.15,ESE,103,0.0,0.0,33,0.00,CLR,CLR,0.00,WeatherDisplay:10.37,2013-05-02 01:57:00,
2013-05-01 22:03:00,47.3,20.3,30.15,ESE,103,0.0,0.0,34,0.00,CLR,CLR,0.00,WeatherDisplay:10.37,2013-05-02 02:03:00,
2013-05-01 22:08:00,47.1,20.8,30.15,ESE,103,0.0,0.0,35,0.00,CLR,CLR,0.00,WeatherDisplay:10.37,2013-05-02 02:08:00,
2013-05-01 22:13:00,46.9,21.3,30.15,ESE,103,0.0,0.0,36,0.00,CLR,CLR,0.00,WeatherDisplay:10.37,2013-05-02 02:13:00,
2013-05-01 22:23:00,46.2,21.3,30.15,ESE,103,0.0,0.0,37,0.00,CLR,CLR,0.00,WeatherDisplay:10.37,2013-05-02 02:23:00,
2013-05-01 22:33:00,45.9,21.0,30.15,ESE,103,0.0,0.0,37,0.00,CLR,CLR,0.00,WeatherDisplay:10.37,2013-05-02 02:33:00,
2013-05-01 22:42:00,45.5,21.3,30.15,ESE,103,0.0,0.0,38,0.00,CLR,CLR,0.00,WeatherDisplay:10.37,2013-05-02 02:42:00,
2013-05-01 22:48:00,45.1,21.0,30.15,ESE,103,0.0,0.0,38,0.00,CLR,CLR,0.00,WeatherDisplay:10.37,2013-05-02 02:48:00,
2013-05-01 22:57:00,44.8,20.7,30.15,ESE,103,0.0,0.0,38,0.00,CLR,CLR,0.00,WeatherDisplay:10.37,2013-05-02 02:57:00,
2013-05-01 23:02:00,44.6,20.5,30.15,ESE,103,0.0,0.0,38,0.00,CLR,CLR,0.00,WeatherDisplay:10.37,2013-05-02 03:02:00,
2013-05-01 23:07:00,44.4,21.0,30.15,ESE,103,0.0,0.0,39,0.00,CLR,CLR,0.00,WeatherDisplay:10.37,2013-05-02 03:07:00,
2013-05-01 23:20:00,43.9,20.5,30.15,ESE,103,0.0,0.0,39,0.00,CLR,CLR,0.00,WeatherDisplay:10.37,2013-05-02 03:20:00,
2013-05-01 23:28:00,43.5,20.8,30.15,ESE,103,0.0,0.0,40,0.00,CLR,CLR,0.00,WeatherDisplay:10.37,2013-05-02 03:28:00,
2013-05-01 23:34:00,43.3,20.6,30.15,ESE,103,0.0,0.0,40,0.00,CLR,CLR,0.00,WeatherDisplay:10.37,2013-05-02 03:34:00,
2013-05-01 23:43:00,43.0,22.5,30.15,ESE,103,0.0,0.0,44,0.00,CLR,CLR,0.00,WeatherDisplay:10.37,2013-05-02 03:43:00,
2013-05-01 23:48:00,42.8,21.8,30.15,ESE,103,0.0,0.0,43,0.00,CLR,CLR,0.00,WeatherDisplay:10.37,2013-05-02 03:48:00,
2013-05-01 23:54:00,42.6,21.7,30.15,ESE,103,0.0,0.0,43,0.00,CLR,CLR,0.00,WeatherDisplay:10.37,2013-05-02 03:54:00,